sensor_id;sensor_type;location;lat;lon;timestamp;P1;durP1;ratioP1;P2;durP2;ratioP2
21030;SDS011;61072;47.808;7.636;2023-08-07T00:01:59;3.13;;;1.40;;
21030;SDS011;61072;47.808;7.636;2023-08-07T00:04:26;2.67;;;1.15;;
21030;SDS011;61072;47.808;7.636;2023-08-07T00:06:53;3.83;;;1.70;;
21030;SDS011;61072;47.808;7.636;2023-08-07T00:09:20;3.08;;;1.50;;
21030;SDS011;61072;47.808;7.636;2023-08-07T00:11:47;4.28;;;1.42;;
21030;SDS011;61072;47.808;7.636;2023-08-07T00:14:14;4.57;;;1.50;;
21030;SDS011;61072;47.808;7.636;2023-08-07T00:16:41;2.45;;;1.40;;
21030;SDS011;61072;47.808;7.636;2023-08-07T00:19:08;3.05;;;1.30;;
21030;SDS011;61072;47.808;7.636;2023-08-07T00:21:34;5.30;;;1.65;;
21030;SDS011;61072;47.808;7.636;2023-08-07T00:24:02;2.60;;;1.42;;
21030;SDS011;61072;47.808;7.636;2023-08-07T00:26:29;1.98;;;1.20;;
21030;SDS011;61072;47.808;7.636;2023-08-07T00:28:58;2.38;;;1.30;;
21030;SDS011;61072;47.808;7.636;2023-08-07T00:31:25;6.13;;;1.92;;
21030;SDS011;61072;47.808;7.636;2023-08-07T00:33:52;2.33;;;1.77;;
21030;SDS011;61072;47.808;7.636;2023-08-07T00:36:20;3.30;;;1.70;;
21030;SDS011;61072;47.808;7.636;2023-08-07T00:38:47;3.20;;;1.40;;
21030;SDS011;61072;47.808;7.636;2023-08-07T00:41:16;5.70;;;1.25;;
21030;SDS011;61072;47.808;7.636;2023-08-07T00:46:11;6.65;;;1.83;;
21030;SDS011;61072;47.808;7.636;2023-08-07T00:48:38;2.17;;;1.55;;
21030;SDS011;61072;47.808;7.636;2023-08-07T00:51:06;3.63;;;1.55;;
21030;SDS011;61072;47.808;7.636;2023-08-07T00:53:37;3.00;;;1.38;;
21030;SDS011;61072;47.808;7.636;2023-08-07T00:56:04;3.35;;;1.48;;
21030;SDS011;61072;47.808;7.636;2023-08-07T00:58:32;8.90;;;1.40;;
21030;SDS011;61072;47.808;7.636;2023-08-07T01:00:59;6.47;;;1.90;;
21030;SDS011;61072;47.808;7.636;2023-08-07T01:03:26;4.28;;;1.70;;
21030;SDS011;61072;47.808;7.636;2023-08-07T01:05:53;2.88;;;1.73;;
21030;SDS011;61072;47.808;7.636;2023-08-07T01:08:20;3.35;;;1.65;;
21030;SDS011;61072;47.808;7.636;2023-08-07T01:16:57;3.17;;;1.50;;
21030;SDS011;61072;47.808;7.636;2023-08-07T01:19:30;4.25;;;1.52;;
21030;SDS011;61072;47.808;7.636;2023-08-07T01:22:04;3.13;;;1.10;;
21030;SDS011;61072;47.808;7.636;2023-08-07T01:24:32;2.50;;;1.35;;
21030;SDS011;61072;47.808;7.636;2023-08-07T01:27:08;3.05;;;0.98;;
21030;SDS011;61072;47.808;7.636;2023-08-07T01:29:44;2.55;;;1.48;;
21030;SDS011;61072;47.808;7.636;2023-08-07T01:32:47;3.65;;;1.50;;
21030;SDS011;61072;47.808;7.636;2023-08-07T01:35:22;2.80;;;1.20;;
21030;SDS011;61072;47.808;7.636;2023-08-07T01:37:53;1.92;;;1.30;;
21030;SDS011;61072;47.808;7.636;2023-08-07T01:40:22;3.92;;;1.38;;
21030;SDS011;61072;47.808;7.636;2023-08-07T01:42:50;3.92;;;1.30;;
21030;SDS011;61072;47.808;7.636;2023-08-07T01:45:23;2.38;;;1.52;;
21030;SDS011;61072;47.808;7.636;2023-08-07T01:47:54;3.72;;;1.70;;
21030;SDS011;61072;47.808;7.636;2023-08-07T01:50:22;2.45;;;1.10;;
21030;SDS011;61072;47.808;7.636;2023-08-07T01:52:50;2.97;;;1.48;;
21030;SDS011;61072;47.808;7.636;2023-08-07T01:55:17;2.40;;;1.30;;
21030;SDS011;61072;47.808;7.636;2023-08-07T01:57:45;1.95;;;1.30;;
21030;SDS011;61072;47.808;7.636;2023-08-07T02:00:12;2.47;;;1.25;;
21030;SDS011;61072;47.808;7.636;2023-08-07T02:02:39;1.58;;;1.23;;
21030;SDS011;61072;47.808;7.636;2023-08-07T02:05:06;2.90;;;1.50;;
21030;SDS011;61072;47.808;7.636;2023-08-07T02:07:32;4.68;;;1.20;;
21030;SDS011;61072;47.808;7.636;2023-08-07T02:09:59;3.75;;;1.13;;
21030;SDS011;61072;47.808;7.636;2023-08-07T02:12:26;1.83;;;1.30;;
21030;SDS011;61072;47.808;7.636;2023-08-07T02:14:53;4.43;;;1.38;;
21030;SDS011;61072;47.808;7.636;2023-08-07T02:17:21;3.88;;;1.27;;
21030;SDS011;61072;47.808;7.636;2023-08-07T02:19:50;2.25;;;1.40;;
21030;SDS011;61072;47.808;7.636;2023-08-07T02:22:17;1.80;;;1.40;;
21030;SDS011;61072;47.808;7.636;2023-08-07T02:24:44;1.88;;;1.50;;
21030;SDS011;61072;47.808;7.636;2023-08-07T02:27:10;2.22;;;1.60;;
21030;SDS011;61072;47.808;7.636;2023-08-07T02:29:37;2.45;;;1.52;;
21030;SDS011;61072;47.808;7.636;2023-08-07T02:32:04;3.08;;;1.70;;
21030;SDS011;61072;47.808;7.636;2023-08-07T02:34:31;3.90;;;1.40;;
21030;SDS011;61072;47.808;7.636;2023-08-07T02:36:58;3.03;;;1.35;;
21030;SDS011;61072;47.808;7.636;2023-08-07T02:39:25;2.60;;;1.42;;
21030;SDS011;61072;47.808;7.636;2023-08-07T02:41:52;1.73;;;1.13;;
21030;SDS011;61072;47.808;7.636;2023-08-07T02:44:19;3.65;;;1.48;;
21030;SDS011;61072;47.808;7.636;2023-08-07T02:46:46;3.97;;;1.25;;
21030;SDS011;61072;47.808;7.636;2023-08-07T02:49:13;4.00;;;1.67;;
21030;SDS011;61072;47.808;7.636;2023-08-07T02:51:39;5.28;;;1.30;;
21030;SDS011;61072;47.808;7.636;2023-08-07T02:54:06;1.85;;;1.30;;
21030;SDS011;61072;47.808;7.636;2023-08-07T02:56:33;1.45;;;1.08;;
21030;SDS011;61072;47.808;7.636;2023-08-07T02:59:00;1.95;;;1.33;;
21030;SDS011;61072;47.808;7.636;2023-08-07T03:01:28;2.25;;;1.25;;
21030;SDS011;61072;47.808;7.636;2023-08-07T03:03:55;3.42;;;1.40;;
21030;SDS011;61072;47.808;7.636;2023-08-07T03:06:22;2.70;;;1.38;;
21030;SDS011;61072;47.808;7.636;2023-08-07T03:08:49;4.80;;;1.30;;
21030;SDS011;61072;47.808;7.636;2023-08-07T03:11:15;2.53;;;1.33;;
21030;SDS011;61072;47.808;7.636;2023-08-07T03:13:42;1.83;;;1.20;;
21030;SDS011;61072;47.808;7.636;2023-08-07T03:16:10;5.03;;;1.60;;
21030;SDS011;61072;47.808;7.636;2023-08-07T03:18:37;1.73;;;1.50;;
21030;SDS011;61072;47.808;7.636;2023-08-07T03:21:04;1.83;;;1.42;;
21030;SDS011;61072;47.808;7.636;2023-08-07T03:23:30;3.90;;;1.65;;
21030;SDS011;61072;47.808;7.636;2023-08-07T03:26:04;1.95;;;1.23;;
21030;SDS011;61072;47.808;7.636;2023-08-07T03:28:35;3.47;;;1.33;;
21030;SDS011;61072;47.808;7.636;2023-08-07T03:31:02;3.80;;;1.52;;
21030;SDS011;61072;47.808;7.636;2023-08-07T03:33:29;5.63;;;1.42;;
21030;SDS011;61072;47.808;7.636;2023-08-07T03:35:56;3.65;;;1.48;;
21030;SDS011;61072;47.808;7.636;2023-08-07T03:38:23;4.22;;;1.50;;
21030;SDS011;61072;47.808;7.636;2023-08-07T03:40:50;8.18;;;3.35;;
21030;SDS011;61072;47.808;7.636;2023-08-07T03:43:16;2.47;;;1.50;;
21030;SDS011;61072;47.808;7.636;2023-08-07T03:45:43;4.95;;;1.60;;
21030;SDS011;61072;47.808;7.636;2023-08-07T03:48:10;2.50;;;1.58;;
21030;SDS011;61072;47.808;7.636;2023-08-07T03:50:36;2.58;;;1.70;;
21030;SDS011;61072;47.808;7.636;2023-08-07T03:53:04;3.08;;;1.30;;
21030;SDS011;61072;47.808;7.636;2023-08-07T03:55:33;3.80;;;1.57;;
21030;SDS011;61072;47.808;7.636;2023-08-07T03:58:00;2.50;;;1.55;;
21030;SDS011;61072;47.808;7.636;2023-08-07T04:00:28;2.45;;;1.10;;
21030;SDS011;61072;47.808;7.636;2023-08-07T04:02:55;4.80;;;1.50;;
21030;SDS011;61072;47.808;7.636;2023-08-07T04:05:22;1.98;;;1.52;;
21030;SDS011;61072;47.808;7.636;2023-08-07T04:07:49;3.15;;;1.42;;
21030;SDS011;61072;47.808;7.636;2023-08-07T04:10:15;3.03;;;1.48;;
21030;SDS011;61072;47.808;7.636;2023-08-07T04:12:42;2.80;;;1.58;;
21030;SDS011;61072;47.808;7.636;2023-08-07T04:15:09;3.00;;;1.70;;
21030;SDS011;61072;47.808;7.636;2023-08-07T04:17:36;3.80;;;1.65;;
21030;SDS011;61072;47.808;7.636;2023-08-07T04:20:03;3.30;;;1.80;;
21030;SDS011;61072;47.808;7.636;2023-08-07T04:22:30;3.22;;;1.30;;
21030;SDS011;61072;47.808;7.636;2023-08-07T04:24:57;3.55;;;1.38;;
21030;SDS011;61072;47.808;7.636;2023-08-07T04:27:24;3.80;;;1.20;;
21030;SDS011;61072;47.808;7.636;2023-08-07T04:29:50;3.97;;;1.70;;
21030;SDS011;61072;47.808;7.636;2023-08-07T04:32:18;2.33;;;1.45;;
21030;SDS011;61072;47.808;7.636;2023-08-07T04:34:44;4.45;;;1.40;;
21030;SDS011;61072;47.808;7.636;2023-08-07T04:37:11;4.07;;;1.48;;
21030;SDS011;61072;47.808;7.636;2023-08-07T04:39:38;2.58;;;1.38;;
21030;SDS011;61072;47.808;7.636;2023-08-07T04:42:04;2.40;;;1.40;;
21030;SDS011;61072;47.808;7.636;2023-08-07T04:44:31;3.15;;;1.30;;
21030;SDS011;61072;47.808;7.636;2023-08-07T04:46:58;5.32;;;1.83;;
21030;SDS011;61072;47.808;7.636;2023-08-07T04:49:25;3.20;;;1.38;;
21030;SDS011;61072;47.808;7.636;2023-08-07T04:51:52;1.35;;;1.20;;
21030;SDS011;61072;47.808;7.636;2023-08-07T04:54:19;4.57;;;1.50;;
21030;SDS011;61072;47.808;7.636;2023-08-07T04:56:45;2.17;;;1.48;;
21030;SDS011;61072;47.808;7.636;2023-08-07T04:59:12;2.97;;;1.40;;
21030;SDS011;61072;47.808;7.636;2023-08-07T05:01:39;3.55;;;1.60;;
21030;SDS011;61072;47.808;7.636;2023-08-07T05:04:06;1.75;;;1.30;;
21030;SDS011;61072;47.808;7.636;2023-08-07T05:06:33;2.67;;;1.73;;
21030;SDS011;61072;47.808;7.636;2023-08-07T05:08:59;4.85;;;1.30;;
21030;SDS011;61072;47.808;7.636;2023-08-07T05:11:26;3.72;;;1.70;;
21030;SDS011;61072;47.808;7.636;2023-08-07T05:13:53;1.70;;;1.33;;
21030;SDS011;61072;47.808;7.636;2023-08-07T05:16:20;4.80;;;1.58;;
21030;SDS011;61072;47.808;7.636;2023-08-07T05:18:47;1.25;;;1.00;;
21030;SDS011;61072;47.808;7.636;2023-08-07T05:21:16;1.58;;;1.25;;
21030;SDS011;61072;47.808;7.636;2023-08-07T05:23:43;2.25;;;1.30;;
21030;SDS011;61072;47.808;7.636;2023-08-07T05:26:09;1.77;;;1.20;;
21030;SDS011;61072;47.808;7.636;2023-08-07T05:28:37;2.45;;;1.30;;
21030;SDS011;61072;47.808;7.636;2023-08-07T05:31:03;2.47;;;1.10;;
21030;SDS011;61072;47.808;7.636;2023-08-07T05:33:30;2.60;;;1.20;;
21030;SDS011;61072;47.808;7.636;2023-08-07T05:35:57;3.67;;;1.40;;
21030;SDS011;61072;47.808;7.636;2023-08-07T05:38:24;2.85;;;1.25;;
21030;SDS011;61072;47.808;7.636;2023-08-07T05:40:50;2.90;;;1.33;;
21030;SDS011;61072;47.808;7.636;2023-08-07T05:43:17;3.72;;;1.38;;
21030;SDS011;61072;47.808;7.636;2023-08-07T05:45:44;1.70;;;1.23;;
21030;SDS011;61072;47.808;7.636;2023-08-07T05:48:12;2.40;;;1.20;;
21030;SDS011;61072;47.808;7.636;2023-08-07T05:50:39;4.25;;;1.42;;
21030;SDS011;61072;47.808;7.636;2023-08-07T05:53:05;2.08;;;1.55;;
21030;SDS011;61072;47.808;7.636;2023-08-07T05:55:33;2.45;;;1.20;;
21030;SDS011;61072;47.808;7.636;2023-08-07T05:58:00;2.33;;;1.52;;
21030;SDS011;61072;47.808;7.636;2023-08-07T06:00:27;4.03;;;1.63;;
21030;SDS011;61072;47.808;7.636;2023-08-07T06:02:54;1.80;;;1.00;;
21030;SDS011;61072;47.808;7.636;2023-08-07T06:05:21;2.35;;;1.23;;
21030;SDS011;61072;47.808;7.636;2023-08-07T06:07:48;5.05;;;1.17;;
21030;SDS011;61072;47.808;7.636;2023-08-07T06:10:15;2.65;;;1.50;;
21030;SDS011;61072;47.808;7.636;2023-08-07T06:12:42;3.47;;;1.30;;
21030;SDS011;61072;47.808;7.636;2023-08-07T06:15:08;3.38;;;1.90;;
21030;SDS011;61072;47.808;7.636;2023-08-07T06:17:35;1.30;;;1.08;;
21030;SDS011;61072;47.808;7.636;2023-08-07T06:20:02;5.05;;;1.20;;
21030;SDS011;61072;47.808;7.636;2023-08-07T06:22:31;4.25;;;1.55;;
21030;SDS011;61072;47.808;7.636;2023-08-07T06:24:58;2.03;;;1.17;;
21030;SDS011;61072;47.808;7.636;2023-08-07T06:27:25;4.53;;;1.27;;
21030;SDS011;61072;47.808;7.636;2023-08-07T06:29:52;2.42;;;1.15;;
21030;SDS011;61072;47.808;7.636;2023-08-07T06:32:19;1.90;;;1.13;;
21030;SDS011;61072;47.808;7.636;2023-08-07T06:34:46;1.92;;;1.20;;
21030;SDS011;61072;47.808;7.636;2023-08-07T06:37:13;4.18;;;1.40;;
21030;SDS011;61072;47.808;7.636;2023-08-07T06:39:39;2.70;;;1.98;;
21030;SDS011;61072;47.808;7.636;2023-08-07T06:42:06;2.90;;;1.17;;
21030;SDS011;61072;47.808;7.636;2023-08-07T06:44:33;1.80;;;1.20;;
21030;SDS011;61072;47.808;7.636;2023-08-07T06:47:00;3.17;;;1.30;;
21030;SDS011;61072;47.808;7.636;2023-08-07T06:49:27;4.18;;;1.38;;
21030;SDS011;61072;47.808;7.636;2023-08-07T06:51:54;3.90;;;1.27;;
21030;SDS011;61072;47.808;7.636;2023-08-07T06:54:21;2.58;;;1.27;;
21030;SDS011;61072;47.808;7.636;2023-08-07T06:56:48;1.15;;;1.05;;
21030;SDS011;61072;47.808;7.636;2023-08-07T06:59:14;1.83;;;1.27;;
21030;SDS011;61072;47.808;7.636;2023-08-07T07:01:41;2.97;;;1.50;;
21030;SDS011;61072;47.808;7.636;2023-08-07T07:04:08;2.78;;;1.00;;
21030;SDS011;61072;47.808;7.636;2023-08-07T07:06:36;2.38;;;1.30;;
21030;SDS011;61072;47.808;7.636;2023-08-07T07:09:03;2.20;;;1.23;;
21030;SDS011;61072;47.808;7.636;2023-08-07T07:11:31;3.17;;;1.05;;
21030;SDS011;61072;47.808;7.636;2023-08-07T07:13:57;4.38;;;1.17;;
21030;SDS011;61072;47.808;7.636;2023-08-07T07:16:24;2.97;;;1.38;;
21030;SDS011;61072;47.808;7.636;2023-08-07T07:18:54;3.63;;;1.02;;
21030;SDS011;61072;47.808;7.636;2023-08-07T07:21:22;2.83;;;1.15;;
21030;SDS011;61072;47.808;7.636;2023-08-07T07:23:49;3.53;;;1.15;;
21030;SDS011;61072;47.808;7.636;2023-08-07T07:26:16;3.20;;;1.40;;
21030;SDS011;61072;47.808;7.636;2023-08-07T07:28:42;1.63;;;1.27;;
21030;SDS011;61072;47.808;7.636;2023-08-07T07:31:09;2.05;;;1.30;;
21030;SDS011;61072;47.808;7.636;2023-08-07T07:33:38;2.08;;;1.15;;
21030;SDS011;61072;47.808;7.636;2023-08-07T07:36:06;1.77;;;1.00;;
21030;SDS011;61072;47.808;7.636;2023-08-07T07:38:33;2.22;;;1.20;;
21030;SDS011;61072;47.808;7.636;2023-08-07T07:41:00;1.08;;;0.90;;
21030;SDS011;61072;47.808;7.636;2023-08-07T07:43:27;4.20;;;1.02;;
21030;SDS011;61072;47.808;7.636;2023-08-07T07:45:54;1.00;;;0.88;;
21030;SDS011;61072;47.808;7.636;2023-08-07T07:48:20;2.20;;;0.95;;
21030;SDS011;61072;47.808;7.636;2023-08-07T07:50:47;1.52;;;1.00;;
21030;SDS011;61072;47.808;7.636;2023-08-07T07:53:14;3.00;;;1.30;;
21030;SDS011;61072;47.808;7.636;2023-08-07T07:55:40;1.88;;;1.20;;
21030;SDS011;61072;47.808;7.636;2023-08-07T07:58:12;4.13;;;1.15;;
21030;SDS011;61072;47.808;7.636;2023-08-07T08:00:39;10.93;;;1.52;;
21030;SDS011;61072;47.808;7.636;2023-08-07T08:03:05;2.95;;;1.20;;
21030;SDS011;61072;47.808;7.636;2023-08-07T08:05:32;3.33;;;1.10;;
21030;SDS011;61072;47.808;7.636;2023-08-07T08:08:00;2.63;;;1.10;;
21030;SDS011;61072;47.808;7.636;2023-08-07T08:10:27;1.83;;;0.98;;
21030;SDS011;61072;47.808;7.636;2023-08-07T08:12:54;7.40;;;1.10;;
21030;SDS011;61072;47.808;7.636;2023-08-07T08:15:22;5.13;;;1.08;;
21030;SDS011;61072;47.808;7.636;2023-08-07T08:17:49;1.77;;;1.00;;
21030;SDS011;61072;47.808;7.636;2023-08-07T08:20:16;2.42;;;1.15;;
21030;SDS011;61072;47.808;7.636;2023-08-07T08:22:44;2.15;;;1.40;;
21030;SDS011;61072;47.808;7.636;2023-08-07T08:25:12;1.98;;;1.20;;
21030;SDS011;61072;47.808;7.636;2023-08-07T08:27:39;2.88;;;1.02;;
21030;SDS011;61072;47.808;7.636;2023-08-07T08:30:07;4.13;;;1.48;;
21030;SDS011;61072;47.808;7.636;2023-08-07T08:32:35;1.25;;;0.88;;
21030;SDS011;61072;47.808;7.636;2023-08-07T08:35:01;3.83;;;1.90;;
21030;SDS011;61072;47.808;7.636;2023-08-07T08:37:28;4.10;;;1.25;;
21030;SDS011;61072;47.808;7.636;2023-08-07T08:39:55;3.85;;;1.50;;
21030;SDS011;61072;47.808;7.636;2023-08-07T08:42:22;2.22;;;1.30;;
21030;SDS011;61072;47.808;7.636;2023-08-07T08:44:53;2.55;;;1.20;;
21030;SDS011;61072;47.808;7.636;2023-08-07T08:47:21;4.15;;;1.13;;
21030;SDS011;61072;47.808;7.636;2023-08-07T08:50:00;1.88;;;1.20;;
21030;SDS011;61072;47.808;7.636;2023-08-07T08:52:29;2.03;;;1.15;;
21030;SDS011;61072;47.808;7.636;2023-08-07T08:54:58;2.65;;;1.00;;
21030;SDS011;61072;47.808;7.636;2023-08-07T08:57:25;3.92;;;1.20;;
21030;SDS011;61072;47.808;7.636;2023-08-07T08:59:52;2.42;;;1.00;;
21030;SDS011;61072;47.808;7.636;2023-08-07T09:02:19;11.55;;;2.17;;
21030;SDS011;61072;47.808;7.636;2023-08-07T09:04:46;3.58;;;1.20;;
21030;SDS011;61072;47.808;7.636;2023-08-07T09:07:13;3.35;;;0.82;;
21030;SDS011;61072;47.808;7.636;2023-08-07T09:09:41;2.83;;;1.20;;
21030;SDS011;61072;47.808;7.636;2023-08-07T09:12:13;0.90;;;0.80;;
21030;SDS011;61072;47.808;7.636;2023-08-07T09:14:45;3.40;;;1.23;;
21030;SDS011;61072;47.808;7.636;2023-08-07T09:17:18;2.58;;;0.80;;
21030;SDS011;61072;47.808;7.636;2023-08-07T09:19:46;3.00;;;0.95;;
21030;SDS011;61072;47.808;7.636;2023-08-07T09:22:13;1.42;;;0.82;;
21030;SDS011;61072;47.808;7.636;2023-08-07T09:24:41;2.08;;;1.10;;
21030;SDS011;61072;47.808;7.636;2023-08-07T09:27:07;1.70;;;1.00;;
21030;SDS011;61072;47.808;7.636;2023-08-07T09:29:34;1.88;;;0.90;;
21030;SDS011;61072;47.808;7.636;2023-08-07T09:32:08;3.38;;;1.23;;
21030;SDS011;61072;47.808;7.636;2023-08-07T09:34:38;1.45;;;0.88;;
21030;SDS011;61072;47.808;7.636;2023-08-07T09:37:09;1.17;;;1.08;;
21030;SDS011;61072;47.808;7.636;2023-08-07T09:39:36;3.17;;;0.98;;
21030;SDS011;61072;47.808;7.636;2023-08-07T09:42:03;1.58;;;1.10;;
21030;SDS011;61072;47.808;7.636;2023-08-07T09:44:36;0.93;;;0.70;;
21030;SDS011;61072;47.808;7.636;2023-08-07T09:47:13;2.35;;;0.98;;
21030;SDS011;61072;47.808;7.636;2023-08-07T09:49:41;3.28;;;1.00;;
21030;SDS011;61072;47.808;7.636;2023-08-07T09:52:09;2.97;;;0.90;;
21030;SDS011;61072;47.808;7.636;2023-08-07T09:54:40;1.40;;;0.93;;
21030;SDS011;61072;47.808;7.636;2023-08-07T09:57:07;3.47;;;1.15;;
21030;SDS011;61072;47.808;7.636;2023-08-07T09:59:34;1.02;;;0.75;;
21030;SDS011;61072;47.808;7.636;2023-08-07T10:02:02;2.40;;;1.10;;
21030;SDS011;61072;47.808;7.636;2023-08-07T10:04:29;0.88;;;0.82;;
21030;SDS011;61072;47.808;7.636;2023-08-07T10:06:57;2.22;;;0.98;;
21030;SDS011;61072;47.808;7.636;2023-08-07T10:09:24;3.45;;;0.90;;
21030;SDS011;61072;47.808;7.636;2023-08-07T10:11:53;1.40;;;0.75;;
21030;SDS011;61072;47.808;7.636;2023-08-07T10:14:21;1.98;;;0.68;;
21030;SDS011;61072;47.808;7.636;2023-08-07T10:16:48;1.67;;;0.90;;
21030;SDS011;61072;47.808;7.636;2023-08-07T10:19:15;3.47;;;0.82;;
21030;SDS011;61072;47.808;7.636;2023-08-07T10:21:43;2.28;;;0.70;;
21030;SDS011;61072;47.808;7.636;2023-08-07T10:24:11;2.70;;;1.05;;
21030;SDS011;61072;47.808;7.636;2023-08-07T10:26:41;2.83;;;0.90;;
21030;SDS011;61072;47.808;7.636;2023-08-07T10:31:38;1.58;;;0.80;;
21030;SDS011;61072;47.808;7.636;2023-08-07T10:36:36;1.80;;;0.93;;
21030;SDS011;61072;47.808;7.636;2023-08-07T10:39:09;1.30;;;1.15;;
21030;SDS011;61072;47.808;7.636;2023-08-07T10:41:55;2.15;;;0.95;;
21030;SDS011;61072;47.808;7.636;2023-08-07T10:44:23;2.95;;;1.10;;
21030;SDS011;61072;47.808;7.636;2023-08-07T10:46:52;2.67;;;1.13;;
21030;SDS011;61072;47.808;7.636;2023-08-07T10:49:31;1.42;;;0.80;;
21030;SDS011;61072;47.808;7.636;2023-08-07T10:52:01;3.63;;;1.00;;
21030;SDS011;61072;47.808;7.636;2023-08-07T10:54:39;1.45;;;1.00;;
21030;SDS011;61072;47.808;7.636;2023-08-07T10:57:11;2.22;;;0.80;;
21030;SDS011;61072;47.808;7.636;2023-08-07T11:00:23;2.20;;;1.35;;
21030;SDS011;61072;47.808;7.636;2023-08-07T11:02:36;1.25;;;0.90;;
21030;SDS011;61072;47.808;7.636;2023-08-07T11:05:07;3.05;;;1.20;;
21030;SDS011;61072;47.808;7.636;2023-08-07T11:07:34;1.92;;;0.90;;
21030;SDS011;61072;47.808;7.636;2023-08-07T11:10:06;1.85;;;0.95;;
21030;SDS011;61072;47.808;7.636;2023-08-07T11:12:33;2.25;;;0.90;;
21030;SDS011;61072;47.808;7.636;2023-08-07T11:15:00;3.90;;;1.02;;
21030;SDS011;61072;47.808;7.636;2023-08-07T11:17:27;2.08;;;0.90;;
21030;SDS011;61072;47.808;7.636;2023-08-07T11:19:55;1.48;;;0.70;;
21030;SDS011;61072;47.808;7.636;2023-08-07T11:22:22;2.33;;;1.00;;
21030;SDS011;61072;47.808;7.636;2023-08-07T11:24:52;3.80;;;1.20;;
21030;SDS011;61072;47.808;7.636;2023-08-07T11:27:21;3.45;;;1.67;;
21030;SDS011;61072;47.808;7.636;2023-08-07T11:29:48;1.45;;;0.88;;
21030;SDS011;61072;47.808;7.636;2023-08-07T11:32:15;2.90;;;1.00;;
21030;SDS011;61072;47.808;7.636;2023-08-07T11:34:48;1.05;;;0.70;;
21030;SDS011;61072;47.808;7.636;2023-08-07T11:37:17;1.50;;;0.93;;
21030;SDS011;61072;47.808;7.636;2023-08-07T11:39:44;3.83;;;0.90;;
21030;SDS011;61072;47.808;7.636;2023-08-07T11:42:11;2.47;;;1.17;;
21030;SDS011;61072;47.808;7.636;2023-08-07T11:44:37;3.22;;;0.90;;
21030;SDS011;61072;47.808;7.636;2023-08-07T11:47:04;2.92;;;0.80;;
21030;SDS011;61072;47.808;7.636;2023-08-07T11:49:31;1.90;;;0.73;;
21030;SDS011;61072;47.808;7.636;2023-08-07T11:51:58;1.42;;;0.80;;
21030;SDS011;61072;47.808;7.636;2023-08-07T11:54:25;2.28;;;0.90;;
21030;SDS011;61072;47.808;7.636;2023-08-07T11:56:52;1.58;;;0.75;;
21030;SDS011;61072;47.808;7.636;2023-08-07T11:59:20;1.55;;;0.93;;
21030;SDS011;61072;47.808;7.636;2023-08-07T12:01:46;1.70;;;0.88;;
21030;SDS011;61072;47.808;7.636;2023-08-07T12:04:13;1.52;;;0.80;;
21030;SDS011;61072;47.808;7.636;2023-08-07T12:06:51;1.83;;;1.10;;
21030;SDS011;61072;47.808;7.636;2023-08-07T12:09:20;1.35;;;0.80;;
21030;SDS011;61072;47.808;7.636;2023-08-07T12:11:47;2.05;;;0.80;;
21030;SDS011;61072;47.808;7.636;2023-08-07T12:14:14;2.92;;;0.70;;
21030;SDS011;61072;47.808;7.636;2023-08-07T12:16:46;1.50;;;0.82;;
21030;SDS011;61072;47.808;7.636;2023-08-07T12:19:14;1.45;;;0.82;;
21030;SDS011;61072;47.808;7.636;2023-08-07T12:21:42;3.72;;;1.52;;
21030;SDS011;61072;47.808;7.636;2023-08-07T12:24:09;1.23;;;0.85;;
21030;SDS011;61072;47.808;7.636;2023-08-07T12:26:37;2.30;;;0.70;;
21030;SDS011;61072;47.808;7.636;2023-08-07T12:29:03;1.58;;;0.98;;
21030;SDS011;61072;47.808;7.636;2023-08-07T12:31:30;5.05;;;0.80;;
21030;SDS011;61072;47.808;7.636;2023-08-07T12:33:57;3.15;;;0.70;;
21030;SDS011;61072;47.808;7.636;2023-08-07T12:36:44;0.80;;;0.60;;
21030;SDS011;61072;47.808;7.636;2023-08-07T12:39:11;1.02;;;0.63;;
21030;SDS011;61072;47.808;7.636;2023-08-07T12:41:38;0.50;;;0.47;;
21030;SDS011;61072;47.808;7.636;2023-08-07T12:44:07;2.47;;;0.90;;
21030;SDS011;61072;47.808;7.636;2023-08-07T12:46:34;1.85;;;0.65;;
21030;SDS011;61072;47.808;7.636;2023-08-07T12:49:08;3.80;;;0.70;;
21030;SDS011;61072;47.808;7.636;2023-08-07T12:51:35;0.80;;;0.43;;
21030;SDS011;61072;47.808;7.636;2023-08-07T12:54:02;1.15;;;0.85;;
21030;SDS011;61072;47.808;7.636;2023-08-07T12:56:29;2.42;;;0.80;;
21030;SDS011;61072;47.808;7.636;2023-08-07T12:58:56;1.15;;;0.70;;
21030;SDS011;61072;47.808;7.636;2023-08-07T13:01:22;3.95;;;1.73;;
21030;SDS011;61072;47.808;7.636;2023-08-07T13:03:49;2.08;;;0.70;;
21030;SDS011;61072;47.808;7.636;2023-08-07T13:06:16;1.27;;;0.60;;
21030;SDS011;61072;47.808;7.636;2023-08-07T13:08:43;2.08;;;0.77;;
21030;SDS011;61072;47.808;7.636;2023-08-07T13:11:12;1.38;;;0.50;;
21030;SDS011;61072;47.808;7.636;2023-08-07T13:13:38;1.13;;;0.60;;
21030;SDS011;61072;47.808;7.636;2023-08-07T13:16:05;1.00;;;0.60;;
21030;SDS011;61072;47.808;7.636;2023-08-07T13:18:32;1.10;;;0.50;;
21030;SDS011;61072;47.808;7.636;2023-08-07T13:20:59;1.88;;;0.80;;
21030;SDS011;61072;47.808;7.636;2023-08-07T13:23:26;3.22;;;1.02;;
21030;SDS011;61072;47.808;7.636;2023-08-07T13:25:52;1.60;;;0.70;;
21030;SDS011;61072;47.808;7.636;2023-08-07T13:28:19;0.75;;;0.52;;
21030;SDS011;61072;47.808;7.636;2023-08-07T13:30:46;1.52;;;0.60;;
21030;SDS011;61072;47.808;7.636;2023-08-07T13:33:13;1.10;;;0.63;;
21030;SDS011;61072;47.808;7.636;2023-08-07T13:35:39;1.95;;;0.60;;
21030;SDS011;61072;47.808;7.636;2023-08-07T13:38:06;1.77;;;0.50;;
21030;SDS011;61072;47.808;7.636;2023-08-07T13:40:35;1.70;;;0.65;;
21030;SDS011;61072;47.808;7.636;2023-08-07T13:43:01;0.80;;;0.60;;
21030;SDS011;61072;47.808;7.636;2023-08-07T13:45:34;1.83;;;0.50;;
21030;SDS011;61072;47.808;7.636;2023-08-07T13:48:01;1.42;;;0.50;;
21030;SDS011;61072;47.808;7.636;2023-08-07T13:50:28;1.10;;;0.50;;
21030;SDS011;61072;47.808;7.636;2023-08-07T13:52:55;0.85;;;0.60;;
21030;SDS011;61072;47.808;7.636;2023-08-07T13:55:39;2.00;;;0.80;;
21030;SDS011;61072;47.808;7.636;2023-08-07T13:58:06;2.95;;;0.60;;
21030;SDS011;61072;47.808;7.636;2023-08-07T14:00:33;1.83;;;0.70;;
21030;SDS011;61072;47.808;7.636;2023-08-07T14:03:01;1.10;;;0.52;;
21030;SDS011;61072;47.808;7.636;2023-08-07T14:05:28;1.77;;;0.80;;
21030;SDS011;61072;47.808;7.636;2023-08-07T14:07:55;1.42;;;0.50;;
21030;SDS011;61072;47.808;7.636;2023-08-07T14:10:23;2.92;;;0.70;;
21030;SDS011;61072;47.808;7.636;2023-08-07T14:12:50;1.17;;;0.60;;
21030;SDS011;61072;47.808;7.636;2023-08-07T14:15:18;0.80;;;0.70;;
21030;SDS011;61072;47.808;7.636;2023-08-07T14:17:44;0.95;;;0.60;;
21030;SDS011;61072;47.808;7.636;2023-08-07T14:20:11;0.73;;;0.60;;
21030;SDS011;61072;47.808;7.636;2023-08-07T14:22:38;3.63;;;0.70;;
21030;SDS011;61072;47.808;7.636;2023-08-07T14:25:07;0.52;;;0.50;;
21030;SDS011;61072;47.808;7.636;2023-08-07T14:27:34;0.60;;;0.50;;
21030;SDS011;61072;47.808;7.636;2023-08-07T14:30:01;0.38;;;0.38;;
21030;SDS011;61072;47.808;7.636;2023-08-07T14:32:28;2.10;;;0.50;;
21030;SDS011;61072;47.808;7.636;2023-08-07T14:34:55;2.63;;;0.68;;
21030;SDS011;61072;47.808;7.636;2023-08-07T14:37:21;0.80;;;0.52;;
21030;SDS011;61072;47.808;7.636;2023-08-07T14:39:48;0.98;;;0.50;;
21030;SDS011;61072;47.808;7.636;2023-08-07T14:42:15;3.00;;;0.57;;
21030;SDS011;61072;47.808;7.636;2023-08-07T14:44:42;0.55;;;0.43;;
21030;SDS011;61072;47.808;7.636;2023-08-07T14:47:09;1.52;;;0.63;;
21030;SDS011;61072;47.808;7.636;2023-08-07T14:49:35;2.15;;;0.43;;
21030;SDS011;61072;47.808;7.636;2023-08-07T14:52:02;1.40;;;0.60;;
21030;SDS011;61072;47.808;7.636;2023-08-07T14:54:29;0.50;;;0.50;;
21030;SDS011;61072;47.808;7.636;2023-08-07T14:56:57;0.70;;;0.50;;
21030;SDS011;61072;47.808;7.636;2023-08-07T14:59:25;1.15;;;0.50;;
21030;SDS011;61072;47.808;7.636;2023-08-07T15:01:51;1.55;;;0.60;;
21030;SDS011;61072;47.808;7.636;2023-08-07T15:04:18;1.63;;;0.57;;
21030;SDS011;61072;47.808;7.636;2023-08-07T15:06:46;0.88;;;0.60;;